createdAt,value
2019-02-18T00:00:47.322Z,86.23
2019-02-18T00:01:20.426Z,78.33
2019-02-18T00:01:53.205Z,78.03
2019-02-18T00:02:26.000Z,78.27
2019-02-18T00:02:57.319Z,77.27
2019-02-18T00:03:28.600Z,77.20
2019-02-18T00:04:00.020Z,78.40
2019-02-18T00:04:31.240Z,76.47
2019-02-18T00:05:02.932Z,79.37
2019-02-18T00:05:34.268Z,78.03
2019-02-18T00:06:05.639Z,78.73
2019-02-18T00:06:37.037Z,78.50
2019-02-18T00:07:14.388Z,75.97
2019-02-18T00:07:41.874Z,72.37
2019-02-18T00:08:13.310Z,75.20
2019-02-18T00:08:44.614Z,78.37
2019-02-18T00:09:15.950Z,82.00
2019-02-18T00:09:47.183Z,83.37
2019-02-18T00:10:18.561Z,79.93
2019-02-18T00:10:49.933Z,77.40
2019-02-18T00:11:21.235Z,82.97
2019-02-18T00:11:52.507Z,80.67
2019-02-18T00:12:23.847Z,81.57
2019-02-18T00:12:55.082Z,81.87
2019-02-18T00:13:26.340Z,84.07
2019-02-18T00:13:57.561Z,79.20
2019-02-18T00:14:28.854Z,75.40
2019-02-18T00:15:00.320Z,72.63
2019-02-18T00:15:31.749Z,72.30
2019-02-18T00:16:03.095Z,70.50
2019-02-18T00:16:34.430Z,71.27
2019-02-18T00:17:05.740Z,72.13
2019-02-18T00:17:37.039Z,71.37
2019-02-18T00:18:08.291Z,71.83
2019-02-18T00:18:42.309Z,71.87
2019-02-18T00:19:14.002Z,71.57
2019-02-18T00:19:45.375Z,72.90
2019-02-18T00:20:16.755Z,73.47
2019-02-18T00:20:47.994Z,75.80
2019-02-18T00:21:19.422Z,75.53
2019-02-18T00:21:50.685Z,76.33
2019-02-18T00:22:22.015Z,76.83
2019-02-18T00:22:53.384Z,78.77
2019-02-18T00:23:24.682Z,78.90
2019-02-18T00:23:56.052Z,80.77
2019-02-18T00:24:27.314Z,83.50
2019-02-18T00:24:58.642Z,83.50
2019-02-18T00:25:29.923Z,85.00
2019-02-18T00:26:01.207Z,83.30
2019-02-18T00:26:32.458Z,83.47
2019-02-18T00:27:03.741Z,85.27
2019-02-18T00:27:35.081Z,86.53
2019-02-18T00:28:06.330Z,86.37
2019-02-18T00:28:37.728Z,87.57
2019-02-18T00:29:09.050Z,85.17
2019-02-18T00:29:40.526Z,87.87
2019-02-18T00:30:11.840Z,84.83
2019-02-18T00:30:43.286Z,79.83
2019-02-18T00:31:14.558Z,80.07
2019-02-18T00:31:45.952Z,80.40
2019-02-18T00:32:17.256Z,81.80
2019-02-18T00:32:48.606Z,79.37
2019-02-18T00:33:19.813Z,77.30
2019-02-18T00:33:51.199Z,77.97
2019-02-18T00:34:22.562Z,76.83
2019-02-18T00:34:54.028Z,78.60
2019-02-18T00:35:25.389Z,74.80
2019-02-18T00:35:56.712Z,69.30
2019-02-18T00:36:28.066Z,70.83
2019-02-18T00:36:59.446Z,75.10
2019-02-18T00:37:30.773Z,77.33
2019-02-18T00:38:02.187Z,83.77
2019-02-18T00:38:33.533Z,87.40
2019-02-18T00:39:04.940Z,92.00
2019-02-18T00:39:37.783Z,90.20
2019-02-18T00:40:09.229Z,91.70
2019-02-18T00:40:40.847Z,91.33
2019-02-18T00:41:12.239Z,92.07
2019-02-18T00:41:43.526Z,90.93
2019-02-18T00:42:14.937Z,93.83
2019-02-18T00:42:46.251Z,95.67
2019-02-18T00:43:17.659Z,96.43
2019-02-18T00:43:48.915Z,97.90
2019-02-18T00:44:20.265Z,97.70
2019-02-18T00:44:51.673Z,105.20
2019-02-18T00:45:23.059Z,111.67
2019-02-18T00:45:54.329Z,121.67
2019-02-18T00:46:25.690Z,124.83
2019-02-18T00:46:57.083Z,129.30
2019-02-18T00:47:28.367Z,128.30
2019-02-18T00:47:59.645Z,136.70
2019-02-18T00:48:30.952Z,132.67
2019-02-18T00:49:02.354Z,138.53
2019-02-18T00:49:33.690Z,130.10
2019-02-18T00:50:07.396Z,128.63
2019-02-18T00:50:38.804Z,128.20
2019-02-18T00:51:10.038Z,118.20
2019-02-18T00:51:41.264Z,116.47
2019-02-18T00:52:12.596Z,106.83
2019-02-18T00:52:44.027Z,97.53
2019-02-18T00:53:15.368Z,95.30
2019-02-18T00:53:46.614Z,92.20
2019-02-18T00:54:17.909Z,92.10
2019-02-18T00:54:49.239Z,90.77
2019-02-18T00:55:20.573Z,87.00
2019-02-18T00:55:51.856Z,81.93
2019-02-18T00:56:23.320Z,77.47
2019-02-18T00:56:54.651Z,77.47
2019-02-18T00:57:25.963Z,75.90
2019-02-18T00:57:57.248Z,68.40
2019-02-18T00:58:28.571Z,68.30
2019-02-18T00:58:59.875Z,63.67
2019-02-18T00:59:31.260Z,58.77
2019-02-18T01:00:07.231Z,56.73
2019-02-18T01:00:38.901Z,57.40
2019-02-18T01:01:10.341Z,56.70
2019-02-18T01:01:42.652Z,54.23
2019-02-18T01:02:14.012Z,55.20
2019-02-18T01:02:46.106Z,55.10
2019-02-18T01:03:17.393Z,55.33
2019-02-18T01:03:48.692Z,54.37
2019-02-18T01:04:20.081Z,50.57
2019-02-18T01:04:51.361Z,50.03
2019-02-18T01:05:22.631Z,48.97
2019-02-18T01:05:53.915Z,49.00
2019-02-18T01:06:25.259Z,46.07
2019-02-18T01:06:56.579Z,45.90
2019-02-18T01:07:34.452Z,46.50
2019-02-18T01:08:01.023Z,45.77
2019-02-18T01:08:32.432Z,44.57
2019-02-18T01:09:04.409Z,43.40
2019-02-18T01:09:35.919Z,41.90
2019-02-18T01:10:10.622Z,43.67
2019-02-18T01:10:41.872Z,44.00
2019-02-18T01:11:13.300Z,42.20
2019-02-18T01:11:44.663Z,43.53
2019-02-18T01:12:15.957Z,43.90
2019-02-18T01:12:47.228Z,43.33
2019-02-18T01:13:18.590Z,45.23
2019-02-18T01:13:49.943Z,44.47
2019-02-18T01:14:21.264Z,42.83
2019-02-18T01:14:52.481Z,41.90
2019-02-18T01:15:23.812Z,41.97
2019-02-18T01:15:55.182Z,38.90
2019-02-18T01:16:26.637Z,37.90
2019-02-18T01:16:58.048Z,39.37
2019-02-18T01:17:29.465Z,36.87
2019-02-18T01:18:00.731Z,35.63
2019-02-18T01:18:32.130Z,37.53
2019-02-18T01:19:03.480Z,35.30
2019-02-18T01:19:34.922Z,35.67
2019-02-18T01:20:10.226Z,35.13
2019-02-18T01:20:41.621Z,33.90
2019-02-18T01:21:13.065Z,34.37
2019-02-18T01:21:44.425Z,34.73
2019-02-18T01:22:15.818Z,33.60
2019-02-18T01:22:47.199Z,33.30
2019-02-18T01:23:18.467Z,33.13
2019-02-18T01:23:49.785Z,33.20
2019-02-18T01:24:21.212Z,32.37
2019-02-18T01:24:52.487Z,31.37
2019-02-18T01:25:23.778Z,31.93
2019-02-18T01:25:55.118Z,32.97
2019-02-18T01:26:26.357Z,31.87
2019-02-18T01:26:57.726Z,31.53
2019-02-18T01:27:29.095Z,31.27
2019-02-18T01:28:00.418Z,32.03
2019-02-18T01:28:31.817Z,33.10
2019-02-18T01:29:03.201Z,33.10
2019-02-18T01:29:34.574Z,33.50
2019-02-18T01:30:11.405Z,35.30
2019-02-18T01:30:42.724Z,35.70
2019-02-18T01:31:14.103Z,36.37
2019-02-18T01:31:45.427Z,37.90
2019-02-18T01:32:16.683Z,39.23
2019-02-18T01:32:48.068Z,36.30
2019-02-18T01:33:19.416Z,36.07
2019-02-18T01:33:51.780Z,37.00
2019-02-18T01:34:23.163Z,37.10
2019-02-18T01:34:54.439Z,37.93
2019-02-18T01:35:25.809Z,38.23
2019-02-18T01:35:57.215Z,36.50
2019-02-18T01:36:28.488Z,37.50
2019-02-18T01:36:59.894Z,39.03
2019-02-18T01:37:31.223Z,37.17
2019-02-18T01:38:02.643Z,36.53
2019-02-18T01:38:34.030Z,37.67
2019-02-18T01:39:05.402Z,36.63
2019-02-18T01:39:36.791Z,37.23
2019-02-18T01:40:12.756Z,34.97
2019-02-18T01:40:44.068Z,34.60
2019-02-18T01:41:15.434Z,35.60
2019-02-18T01:41:46.855Z,36.90
2019-02-18T01:42:18.139Z,38.13
2019-02-18T01:42:49.427Z,36.93
2019-02-18T01:43:20.656Z,37.07
2019-02-18T01:43:52.000Z,37.67
2019-02-18T01:44:23.251Z,38.33
2019-02-18T01:44:54.531Z,37.23
2019-02-18T01:45:25.768Z,38.33
2019-02-18T01:45:57.077Z,38.67
2019-02-18T01:46:28.418Z,40.27
2019-02-18T01:46:59.793Z,39.07
2019-02-18T01:47:31.054Z,38.87
2019-02-18T01:48:02.418Z,38.07
2019-02-18T01:48:33.696Z,36.47
2019-02-18T01:49:05.044Z,38.70
2019-02-18T01:49:36.372Z,39.17
2019-02-18T01:50:12.946Z,39.07
2019-02-18T01:50:44.390Z,39.20
2019-02-18T01:51:15.830Z,39.10
2019-02-18T01:51:47.173Z,39.67
2019-02-18T01:52:18.588Z,39.40
2019-02-18T01:52:50.062Z,39.47
2019-02-18T01:53:21.533Z,39.17
2019-02-18T01:53:53.042Z,40.60
2019-02-18T01:54:24.420Z,39.67
2019-02-18T01:54:55.676Z,39.07
2019-02-18T01:55:26.973Z,39.53
2019-02-18T01:55:58.495Z,36.93
2019-02-18T01:56:29.797Z,36.93
2019-02-18T01:57:01.147Z,36.93
2019-02-18T01:57:32.390Z,36.80
2019-02-18T01:58:03.716Z,36.17
2019-02-18T01:58:35.061Z,36.70
2019-02-18T01:59:07.383Z,35.77
2019-02-18T01:59:38.718Z,35.50
2019-02-18T02:00:13.239Z,36.80
2019-02-18T02:00:44.478Z,36.63
2019-02-18T02:01:15.832Z,37.17
2019-02-18T02:01:47.069Z,37.60
2019-02-18T02:02:18.495Z,39.13
2019-02-18T02:02:49.830Z,39.50
2019-02-18T02:03:21.122Z,42.70
2019-02-18T02:03:52.389Z,44.07
2019-02-18T02:04:23.755Z,45.80
2019-02-18T02:04:55.131Z,45.07
2019-02-18T02:05:26.575Z,47.27
2019-02-18T02:05:57.949Z,47.90
2019-02-18T02:06:29.366Z,48.90
2019-02-18T02:07:00.802Z,49.13
2019-02-18T02:07:32.580Z,48.37
2019-02-18T02:08:04.180Z,48.43
2019-02-18T02:08:35.538Z,47.50
2019-02-18T02:09:08.804Z,48.00
2019-02-18T02:09:40.333Z,45.77
2019-02-18T02:10:14.107Z,47.30
2019-02-18T02:10:45.464Z,45.37
2019-02-18T02:11:16.844Z,45.97
2019-02-18T02:11:48.153Z,46.40
2019-02-18T02:12:19.545Z,45.97
2019-02-18T02:12:52.686Z,45.57
2019-02-18T02:13:27.717Z,45.97
2019-02-18T02:13:58.948Z,43.53
2019-02-18T02:14:30.345Z,42.60
2019-02-18T02:15:03.149Z,42.07
2019-02-18T02:15:34.522Z,42.07
2019-02-18T02:16:07.607Z,42.33
2019-02-18T02:16:38.944Z,40.37
2019-02-18T02:17:10.535Z,41.93
2019-02-18T02:17:41.937Z,40.57
2019-02-18T02:18:13.453Z,41.03
2019-02-18T02:18:44.924Z,40.37
2019-02-18T02:19:16.363Z,39.17
2019-02-18T02:19:47.843Z,38.97
2019-02-18T02:20:19.231Z,41.17
2019-02-18T02:20:50.487Z,41.10
2019-02-18T02:21:21.847Z,43.37
2019-02-18T02:21:53.199Z,42.60
2019-02-18T02:22:24.545Z,41.27
2019-02-18T02:22:55.946Z,42.43
2019-02-18T02:23:27.286Z,43.00
2019-02-18T02:23:58.628Z,44.43
2019-02-18T02:24:29.988Z,45.30
2019-02-18T02:25:01.291Z,44.47
2019-02-18T02:25:32.644Z,45.30
2019-02-18T02:26:03.962Z,45.37
2019-02-18T02:26:35.447Z,47.43
2019-02-18T02:27:06.723Z,46.00
2019-02-18T02:27:39.091Z,44.73
2019-02-18T02:28:10.507Z,44.63
2019-02-18T02:28:41.907Z,44.47
2019-02-18T02:29:13.386Z,43.83
2019-02-18T02:29:44.645Z,46.80
2019-02-18T02:30:16.020Z,45.33
2019-02-18T02:30:47.246Z,44.87
2019-02-18T02:31:18.637Z,46.00
2019-02-18T02:31:49.919Z,46.57
2019-02-18T02:32:21.249Z,43.70
2019-02-18T02:32:53.617Z,43.40
2019-02-18T02:33:25.018Z,43.37
2019-02-18T02:33:56.275Z,47.90
2019-02-18T02:34:27.680Z,48.87
2019-02-18T02:34:59.028Z,48.47
2019-02-18T02:35:31.342Z,47.87
2019-02-18T02:36:02.583Z,46.03
2019-02-18T02:36:33.921Z,44.40
2019-02-18T02:37:05.295Z,45.70
2019-02-18T02:37:36.731Z,45.67
2019-02-18T02:38:08.320Z,46.60
2019-02-18T02:38:39.689Z,45.87
2019-02-18T02:39:11.020Z,48.17
2019-02-18T02:39:42.308Z,45.87
2019-02-18T02:40:13.824Z,46.00
2019-02-18T02:40:45.243Z,45.23
2019-02-18T02:41:16.559Z,45.13
2019-02-18T02:41:47.981Z,47.37
2019-02-18T02:42:19.278Z,46.17
2019-02-18T02:42:50.644Z,46.53
2019-02-18T02:43:21.961Z,46.83
2019-02-18T02:43:54.402Z,48.00
2019-02-18T02:44:25.732Z,48.23
2019-02-18T02:44:57.070Z,46.73
2019-02-18T02:45:28.376Z,47.77
2019-02-18T02:45:59.658Z,47.83
2019-02-18T02:46:32.044Z,49.50
2019-02-18T02:47:03.341Z,47.77
2019-02-18T02:47:34.725Z,47.13
2019-02-18T02:48:06.117Z,45.87
2019-02-18T02:48:37.475Z,46.40
2019-02-18T02:49:08.736Z,45.87
2019-02-18T02:49:40.256Z,44.47
2019-02-18T02:50:11.588Z,44.73
2019-02-18T02:50:42.873Z,45.07
2019-02-18T02:51:14.174Z,41.67
2019-02-18T02:51:45.539Z,41.90
2019-02-18T02:52:16.867Z,41.37
2019-02-18T02:52:48.169Z,42.03
2019-02-18T02:54:12.827Z,42.23
2019-02-18T02:54:45.611Z,43.37
2019-02-18T02:55:16.996Z,44.17
2019-02-18T02:55:48.321Z,45.33
2019-02-18T02:56:19.852Z,47.27
2019-02-18T02:56:51.251Z,45.97
2019-02-18T02:57:22.493Z,46.37
2019-02-18T02:57:53.796Z,48.73
2019-02-18T02:58:25.458Z,45.80
2019-02-18T02:58:56.808Z,48.30
2019-02-18T02:59:28.290Z,48.77
2019-02-18T02:59:59.662Z,51.53
2019-02-18T03:00:31.353Z,51.20
2019-02-18T03:01:02.762Z,51.10
2019-02-18T03:01:34.516Z,50.13
2019-02-18T03:02:07.845Z,51.13
2019-02-18T03:02:39.228Z,49.87
2019-02-18T03:03:10.667Z,51.00
2019-02-18T03:03:42.088Z,47.80
2019-02-18T03:04:13.473Z,47.67
2019-02-18T03:04:45.050Z,50.17
2019-02-18T03:05:16.536Z,46.07
2019-02-18T03:05:47.954Z,45.00
2019-02-18T03:06:19.410Z,46.07
2019-02-18T03:06:50.848Z,43.97
2019-02-18T03:07:22.067Z,42.53
2019-02-18T03:07:53.422Z,41.60
2019-02-18T03:08:24.951Z,43.10
2019-02-18T03:08:56.496Z,44.73
2019-02-18T03:09:27.744Z,43.70
2019-02-18T03:09:59.162Z,46.53
2019-02-18T03:10:30.479Z,46.33
2019-02-18T03:11:01.931Z,49.50
2019-02-18T03:11:33.276Z,46.33
2019-02-18T03:12:04.677Z,49.77
2019-02-18T03:12:36.018Z,48.77
2019-02-18T03:13:07.339Z,50.73
2019-02-18T03:13:38.563Z,51.17
2019-02-18T03:14:09.933Z,50.67
2019-02-18T03:14:41.150Z,48.53
2019-02-18T03:15:14.871Z,49.80
2019-02-18T03:15:46.206Z,48.37
2019-02-18T03:16:17.675Z,48.63
2019-02-18T03:16:49.170Z,50.07
2019-02-18T03:17:20.629Z,49.83
2019-02-18T03:17:52.068Z,49.87
2019-02-18T03:18:23.431Z,52.67
2019-02-18T03:18:54.787Z,50.30
2019-02-18T03:19:26.234Z,49.90
2019-02-18T03:19:57.681Z,52.07
2019-02-18T03:20:29.011Z,49.73
2019-02-18T03:21:00.430Z,48.47
2019-02-18T03:21:31.676Z,44.67
2019-02-18T03:22:03.028Z,46.57
2019-02-18T03:22:34.298Z,45.90
2019-02-18T03:23:05.580Z,44.00
2019-02-18T03:23:36.936Z,42.50
2019-02-18T03:24:08.358Z,42.63
2019-02-18T03:25:01.878Z,41.90
2019-02-18T03:25:33.229Z,39.07
2019-02-18T03:26:04.587Z,42.07
2019-02-18T03:26:35.875Z,40.87
2019-02-18T03:27:07.293Z,39.47
2019-02-18T03:27:38.669Z,41.63
2019-02-18T03:28:21.346Z,42.07
2019-02-18T03:29:07.425Z,40.57
2019-02-18T03:29:53.405Z,40.70
2019-02-18T03:30:54.096Z,41.83
2019-02-18T03:31:26.626Z,39.70
2019-02-18T03:31:58.040Z,40.70
2019-02-18T03:32:29.327Z,44.37
2019-02-18T03:33:00.703Z,45.30
2019-02-18T03:33:49.484Z,44.60
2019-02-18T03:34:26.377Z,43.57
2019-02-18T03:34:57.737Z,44.63
2019-02-18T03:35:29.064Z,44.63
2019-02-18T03:36:00.446Z,44.63
2019-02-18T03:36:31.696Z,44.53
2019-02-18T03:37:02.992Z,46.40
2019-02-18T03:37:34.273Z,45.73
2019-02-18T03:38:05.648Z,43.30
2019-02-18T03:38:36.988Z,43.40
2019-02-18T03:39:08.274Z,42.67
2019-02-18T03:39:39.635Z,43.57
2019-02-18T03:40:10.950Z,44.00
2019-02-18T03:40:42.216Z,44.47
2019-02-18T03:41:13.536Z,44.90
2019-02-18T03:41:44.907Z,45.50
2019-02-18T03:42:16.298Z,48.00
2019-02-18T03:42:47.660Z,47.30
2019-02-18T03:43:19.012Z,49.27
2019-02-18T03:43:50.402Z,53.87
2019-02-18T03:44:21.825Z,53.30
2019-02-18T03:44:53.140Z,55.20
2019-02-18T03:45:24.509Z,56.87
2019-02-18T03:45:55.914Z,54.33
2019-02-18T03:46:27.281Z,56.83
2019-02-18T03:46:58.682Z,56.33
2019-02-18T03:47:30.035Z,57.33
2019-02-18T03:48:01.295Z,60.17
2019-02-18T03:48:32.582Z,60.67
2019-02-18T03:49:03.920Z,61.43
2019-02-18T03:49:35.159Z,60.17
2019-02-18T03:50:06.441Z,63.20
2019-02-18T03:50:37.689Z,62.10
2019-02-18T03:51:08.944Z,63.43
2019-02-18T03:51:40.526Z,64.83
2019-02-18T03:52:11.840Z,63.27
2019-02-18T03:52:44.208Z,62.60
2019-02-18T03:53:15.574Z,58.53
2019-02-18T03:53:46.856Z,57.17
2019-02-18T03:54:18.202Z,54.77
2019-02-18T03:54:49.724Z,54.07
2019-02-18T03:55:21.223Z,53.17
2019-02-18T03:55:52.621Z,52.20
2019-02-18T03:56:24.059Z,52.57
2019-02-18T03:56:55.378Z,50.33
2019-02-18T03:57:26.732Z,51.07
2019-02-18T03:57:58.149Z,48.33
2019-02-18T03:58:29.426Z,47.87
2019-02-18T03:59:00.735Z,44.43
2019-02-18T03:59:31.993Z,42.23
2019-02-18T04:00:07.987Z,41.57
2019-02-18T04:00:39.231Z,40.67
2019-02-18T04:01:10.879Z,39.70
2019-02-18T04:01:42.127Z,38.57
2019-02-18T04:02:13.431Z,39.50
2019-02-18T04:02:44.741Z,41.60
2019-02-18T04:03:16.809Z,40.23
2019-02-18T04:03:48.049Z,40.30
2019-02-18T04:04:19.331Z,40.27
2019-02-18T04:04:50.587Z,38.33
2019-02-18T04:05:22.035Z,39.30
2019-02-18T04:05:53.423Z,36.40
2019-02-18T04:06:24.721Z,38.47
2019-02-18T04:06:56.201Z,36.77
2019-02-18T04:07:27.567Z,36.23
2019-02-18T04:07:58.973Z,35.87
2019-02-18T04:08:30.196Z,37.17
2019-02-18T04:09:04.168Z,39.07
2019-02-18T04:09:36.531Z,39.07
2019-02-18T04:10:09.706Z,42.93
2019-02-18T04:10:41.065Z,46.10
2019-02-18T04:11:12.418Z,57.70
2019-02-18T04:11:44.046Z,52.83
2019-02-18T04:12:15.346Z,55.93
2019-02-18T04:12:46.612Z,54.23
2019-02-18T04:13:17.908Z,56.77
2019-02-18T04:13:49.344Z,55.20
2019-02-18T04:14:20.795Z,54.80
2019-02-18T04:14:52.050Z,54.10
2019-02-18T04:15:23.370Z,50.83
2019-02-18T04:15:54.612Z,49.07
2019-02-18T04:16:25.986Z,47.97
2019-02-18T04:16:57.389Z,46.70
2019-02-18T04:17:28.678Z,44.57
2019-02-18T04:18:00.010Z,48.17
2019-02-18T04:18:31.304Z,52.73
2019-02-18T04:19:03.645Z,55.93
2019-02-18T04:19:35.014Z,68.93
2019-02-18T04:20:06.361Z,69.63
2019-02-18T04:20:37.589Z,68.37
2019-02-18T04:21:09.098Z,68.10
2019-02-18T04:21:40.409Z,71.93
2019-02-18T04:22:11.724Z,73.27
2019-02-18T04:22:43.028Z,75.30
2019-02-18T04:23:14.394Z,75.57
2019-02-18T04:23:45.630Z,73.83
2019-02-18T04:24:17.973Z,69.67
2019-02-18T04:24:49.320Z,70.07
2019-02-18T04:25:20.721Z,67.87
2019-02-18T04:25:52.045Z,66.57
2019-02-18T04:26:23.341Z,60.60
2019-02-18T04:26:54.682Z,59.10
2019-02-18T04:27:25.995Z,56.93
2019-02-18T04:27:57.341Z,54.47
2019-02-18T04:28:28.683Z,52.97
2019-02-18T04:29:00.053Z,54.80
2019-02-18T04:29:31.456Z,53.80
2019-02-18T04:30:06.168Z,55.43
2019-02-18T04:30:37.456Z,53.50
2019-02-18T04:31:08.796Z,56.27
2019-02-18T04:31:40.180Z,54.57
2019-02-18T04:32:11.510Z,55.63
2019-02-18T04:32:42.784Z,54.03
2019-02-18T04:33:14.080Z,54.53
2019-02-18T04:33:45.416Z,53.03
2019-02-18T04:34:16.818Z,54.40
2019-02-18T04:34:48.084Z,55.47
2019-02-18T04:35:19.418Z,55.83
2019-02-18T04:35:50.770Z,56.87
2019-02-18T04:36:21.997Z,55.60
2019-02-18T04:36:53.268Z,54.40
2019-02-18T04:37:24.535Z,54.83
2019-02-18T04:37:55.894Z,54.43
2019-02-18T04:38:27.193Z,56.40
2019-02-18T04:38:58.529Z,54.90
2019-02-18T04:39:29.839Z,51.53
2019-02-18T04:40:01.208Z,51.87
2019-02-18T04:40:32.640Z,52.70
2019-02-18T04:41:04.018Z,52.17
2019-02-18T04:41:35.376Z,52.47
2019-02-18T04:42:06.696Z,50.33
2019-02-18T04:42:37.986Z,46.13
2019-02-18T04:43:09.301Z,46.03
2019-02-18T04:43:42.140Z,42.03
2019-02-18T04:44:13.653Z,41.90
2019-02-18T04:44:44.924Z,40.50
2019-02-18T04:45:16.461Z,42.00
2019-02-18T04:45:47.808Z,42.80
2019-02-18T04:46:19.135Z,41.40
2019-02-18T04:46:50.448Z,42.03
2019-02-18T04:47:21.946Z,41.57
2019-02-18T04:47:53.278Z,42.60
2019-02-18T04:48:25.654Z,41.87
2019-02-18T04:48:57.004Z,41.60
2019-02-18T04:49:28.376Z,41.20
2019-02-18T04:49:59.614Z,41.57
2019-02-18T04:50:31.041Z,42.20
2019-02-18T04:51:02.402Z,42.80
2019-02-18T04:51:33.697Z,42.07
2019-02-18T04:52:04.933Z,43.73
2019-02-18T04:52:36.255Z,43.67
2019-02-18T04:53:07.469Z,44.87
2019-02-18T04:53:38.791Z,44.70
2019-02-18T04:54:10.007Z,46.87
2019-02-18T04:54:41.321Z,46.13
2019-02-18T04:55:12.682Z,48.50
2019-02-18T04:55:44.125Z,48.20
2019-02-18T04:56:15.470Z,46.83
2019-02-18T04:56:46.902Z,47.37
2019-02-18T04:57:18.367Z,49.27
2019-02-18T04:57:49.813Z,48.50
2019-02-18T04:58:21.164Z,47.43
2019-02-18T04:58:52.473Z,44.53
2019-02-18T04:59:23.859Z,45.07
2019-02-18T04:59:55.248Z,43.17
2019-02-18T05:00:26.658Z,42.70
2019-02-18T05:00:58.034Z,40.93
2019-02-18T05:01:29.324Z,41.23
2019-02-18T05:02:00.685Z,41.50
2019-02-18T05:02:32.046Z,41.57
2019-02-18T05:03:03.253Z,42.50
2019-02-18T05:03:34.576Z,41.13
2019-02-18T05:04:05.798Z,40.90
2019-02-18T05:04:37.104Z,40.13
2019-02-18T05:05:09.273Z,40.10
2019-02-18T05:05:40.930Z,40.07
2019-02-18T05:06:12.324Z,41.63
2019-02-18T05:06:43.716Z,41.13
2019-02-18T05:07:15.043Z,42.40
2019-02-18T05:07:46.413Z,41.43
2019-02-18T05:08:17.662Z,41.20
2019-02-18T05:08:48.955Z,42.20
2019-02-18T05:09:20.299Z,41.60
2019-02-18T05:09:51.662Z,41.80
2019-02-18T05:10:22.999Z,42.40
2019-02-18T05:10:54.273Z,45.03
2019-02-18T05:11:25.546Z,43.77
2019-02-18T05:11:56.840Z,45.27
2019-02-18T05:12:28.107Z,43.00
2019-02-18T05:12:59.391Z,43.90
2019-02-18T05:13:30.788Z,43.97
2019-02-18T05:14:02.088Z,44.47
2019-02-18T05:14:33.435Z,44.93
2019-02-18T05:15:06.700Z,44.63
2019-02-18T05:15:40.195Z,40.63
2019-02-18T05:16:11.352Z,44.57
2019-02-18T05:16:42.679Z,43.97
2019-02-18T05:17:13.988Z,40.57
2019-02-18T05:17:45.492Z,38.87
2019-02-18T05:18:16.749Z,36.07
2019-02-18T05:18:48.125Z,33.20
2019-02-18T05:19:19.448Z,34.13
2019-02-18T05:19:50.840Z,30.93
2019-02-18T05:20:22.069Z,31.50
2019-02-18T05:20:53.416Z,32.10
2019-02-18T05:21:24.906Z,31.87
2019-02-18T05:21:56.154Z,31.87
2019-02-18T05:22:27.386Z,34.03
2019-02-18T05:22:58.646Z,33.37
2019-02-18T05:23:29.910Z,34.20
2019-02-18T05:24:01.259Z,35.83
2019-02-18T05:24:32.506Z,35.10
2019-02-18T05:25:07.213Z,35.50
2019-02-18T05:25:38.562Z,36.83
2019-02-18T05:26:09.859Z,36.00
2019-02-18T05:26:41.315Z,37.13
2019-02-18T05:27:12.717Z,37.83
2019-02-18T05:27:44.107Z,38.87
2019-02-18T05:28:15.431Z,37.93
2019-02-18T05:28:46.823Z,38.37
2019-02-18T05:29:18.071Z,38.83
2019-02-18T05:29:49.458Z,39.93
2019-02-18T05:30:20.761Z,40.00
2019-02-18T05:30:52.066Z,39.20
2019-02-18T05:31:23.444Z,40.03
2019-02-18T05:31:54.756Z,37.30
2019-02-18T05:32:25.962Z,36.03
2019-02-18T05:32:57.358Z,33.63
2019-02-18T05:33:28.782Z,34.20
2019-02-18T05:34:00.228Z,32.80
2019-02-18T05:34:31.543Z,30.80
2019-02-18T05:35:03.052Z,32.27
2019-02-18T05:35:34.298Z,35.30
2019-02-18T05:36:05.630Z,39.17
2019-02-18T05:36:36.882Z,39.83
2019-02-18T05:37:08.255Z,47.17
2019-02-18T05:37:39.675Z,49.13
2019-02-18T05:38:11.236Z,53.63
2019-02-18T05:38:42.621Z,57.43
2019-02-18T05:39:17.976Z,59.93
2019-02-18T05:39:47.157Z,54.33
2019-02-18T05:40:18.477Z,52.07
2019-02-18T05:40:49.950Z,47.07
2019-02-18T05:41:21.290Z,42.03
2019-02-18T05:41:52.557Z,40.97
2019-02-18T05:42:23.900Z,36.37
2019-02-18T05:42:55.289Z,37.27
2019-02-18T05:43:26.658Z,36.57
2019-02-18T05:43:58.025Z,35.90
2019-02-18T05:44:29.375Z,36.77
2019-02-18T05:45:00.636Z,35.70
2019-02-18T05:45:31.976Z,40.20
2019-02-18T05:46:03.250Z,42.90
2019-02-18T05:46:34.547Z,44.03
2019-02-18T05:47:05.932Z,44.83
2019-02-18T05:47:37.349Z,45.00
2019-02-18T05:48:08.712Z,45.40
2019-02-18T05:48:40.109Z,39.93
2019-02-18T05:49:11.607Z,37.87
2019-02-18T05:49:42.950Z,36.87
2019-02-18T05:50:14.273Z,35.17
2019-02-18T05:50:45.597Z,34.23
2019-02-18T05:51:16.848Z,33.57
2019-02-18T05:51:48.277Z,31.83
2019-02-18T05:52:19.613Z,34.83
2019-02-18T05:52:50.885Z,32.13
2019-02-18T05:53:22.141Z,33.77
2019-02-18T05:53:53.437Z,34.87
2019-02-18T05:54:24.645Z,33.17
2019-02-18T05:54:55.970Z,34.53
2019-02-18T05:55:27.332Z,34.87
2019-02-18T05:55:58.688Z,36.00
2019-02-18T05:56:30.131Z,34.03
2019-02-18T05:57:02.611Z,35.70
2019-02-18T05:57:33.984Z,36.67
2019-02-18T05:58:05.307Z,37.53
2019-02-18T05:58:36.687Z,38.87
2019-02-18T05:59:08.095Z,38.67
2019-02-18T05:59:39.339Z,42.67
2019-02-18T06:00:11.536Z,41.00
2019-02-18T06:00:42.943Z,39.00
2019-02-18T06:01:14.915Z,41.73
2019-02-18T06:01:46.196Z,41.13
2019-02-18T06:02:19.483Z,44.33
2019-02-18T06:02:50.732Z,41.10
2019-02-18T06:03:22.096Z,42.67
2019-02-18T06:03:53.347Z,43.07
2019-02-18T06:04:24.700Z,42.13
2019-02-18T06:04:55.957Z,40.80
2019-02-18T06:05:28.292Z,39.53
2019-02-18T06:05:59.509Z,38.20
2019-02-18T06:06:30.875Z,36.57
2019-02-18T06:07:02.089Z,33.07
2019-02-18T06:07:33.495Z,32.80
2019-02-18T06:08:04.806Z,33.23
2019-02-18T06:08:36.192Z,32.70
2019-02-18T06:09:07.459Z,32.30
2019-02-18T06:09:38.820Z,31.80
2019-02-18T06:10:10.380Z,32.20
2019-02-18T06:10:41.771Z,30.17
2019-02-18T06:11:13.233Z,30.33
2019-02-18T06:11:44.628Z,28.43
2019-02-18T06:12:16.064Z,29.23
2019-02-18T06:12:47.509Z,27.97
2019-02-18T06:13:18.860Z,28.67
2019-02-18T06:13:50.182Z,30.10
2019-02-18T06:14:21.515Z,32.27
2019-02-18T06:14:52.848Z,34.23
2019-02-18T06:15:24.143Z,31.77
2019-02-18T06:15:55.485Z,32.53
2019-02-18T06:16:26.878Z,35.63
2019-02-18T06:16:58.161Z,36.60
2019-02-18T06:17:29.525Z,37.07
2019-02-18T06:18:00.777Z,37.23
2019-02-18T06:18:32.148Z,38.70
2019-02-18T06:19:03.372Z,39.03
2019-02-18T06:19:35.670Z,38.73
2019-02-18T06:20:08.048Z,37.57
2019-02-18T06:20:39.423Z,34.57
2019-02-18T06:21:10.722Z,31.60
2019-02-18T06:21:42.046Z,29.33
2019-02-18T06:22:13.342Z,28.10
2019-02-18T06:22:44.581Z,27.00
2019-02-18T06:23:15.890Z,27.53
2019-02-18T06:23:47.165Z,27.20
2019-02-18T06:24:18.472Z,27.93
2019-02-18T06:24:49.799Z,27.17
2019-02-18T06:25:21.264Z,26.67
2019-02-18T06:25:52.576Z,26.90
2019-02-18T06:26:23.906Z,26.53
2019-02-18T06:26:55.233Z,26.83
2019-02-18T06:27:26.551Z,27.10
2019-02-18T06:27:57.866Z,27.23
2019-02-18T06:28:29.299Z,28.20
2019-02-18T06:29:00.615Z,28.00
2019-02-18T06:29:31.983Z,29.67
2019-02-18T06:30:06.564Z,28.20
2019-02-18T06:30:37.954Z,28.40
2019-02-18T06:31:09.251Z,28.47
2019-02-18T06:31:40.718Z,29.10
2019-02-18T06:32:12.033Z,29.00
2019-02-18T06:32:43.437Z,30.27
2019-02-18T06:33:14.713Z,29.00
2019-02-18T06:33:46.010Z,29.30
2019-02-18T06:34:17.244Z,29.37
2019-02-18T06:34:48.598Z,30.90
2019-02-18T06:35:19.820Z,32.30
2019-02-18T06:35:51.144Z,29.50
2019-02-18T06:36:23.952Z,29.40
2019-02-18T06:36:55.362Z,30.23
2019-02-18T06:37:26.586Z,31.37
2019-02-18T06:37:58.184Z,35.10
2019-02-18T06:38:29.419Z,32.30
2019-02-18T06:39:00.735Z,30.73
2019-02-18T06:39:40.861Z,30.67
2019-02-18T06:40:07.490Z,30.07
2019-02-18T06:40:38.869Z,29.33
2019-02-18T06:41:10.158Z,31.13
2019-02-18T06:41:41.406Z,30.17
2019-02-18T06:42:12.667Z,30.63
2019-02-18T06:42:44.019Z,33.73
2019-02-18T06:43:15.399Z,33.30
2019-02-18T06:43:46.702Z,31.23
2019-02-18T06:44:19.953Z,29.90
2019-02-18T06:44:53.247Z,30.47
2019-02-18T06:45:35.299Z,30.97
2019-02-18T06:46:08.537Z,29.17
2019-02-18T06:46:41.731Z,27.93
2019-02-18T06:47:13.136Z,24.77
2019-02-18T06:47:44.438Z,25.37
2019-02-18T06:48:23.261Z,27.40
2019-02-18T06:48:56.539Z,27.73
2019-02-18T06:49:27.919Z,28.53